TAF Text Data
IDs:
Format:
Raw Decoded Include METAR

Data at: 0337 UTC 19 Oct 2021

KCLL 182320Z 1900/1924 15005KT P6SM SCT250
  FM191500 16010KT P6SM FEW035